Time;durP1;ratioP1;P1;durP2;ratioP2;P2;SDS_P1;SDS_P2;PMS_P1;PMS_P2;Temp;Humidity;BMP_temperature;BMP_pressure;BME280_temperature;BME280_humidity;BME280_pressure;Samples;Min_cycle;Max_cycle;Signal;HPM_P1;HPM_P2
2022/08/17 00:02:26;;;;;;;12.18;11.15;;;;;;;21.28;66.72;100399.31;5015003;28;20046;-73
2022/08/17 00:04:54;;;;;;;11.75;10.57;;;;;;;21.28;67.09;100400.13;5028511;28;20516;-73
2022/08/17 00:07:21;;;;;;;14.30;9.68;;;;;;;21.28;66.64;100393.63;5047220;28;20079;-73
2022/08/17 00:09:49;;;;;;;22.08;9.23;;;;;;;21.02;67.22;100363.59;5054471;28;20536;-73
2022/08/17 00:12:16;;;;;;;19.88;9.50;;;;;;;21.22;67.51;100398.72;5054381;28;20060;-73
2022/08/17 00:15:04;;;;;;;15.95;10.10;;;;;;;21.04;67.04;100361.22;5054455;28;20501;-73
2022/08/17 00:17:37;;;;;;;19.75;10.48;;;;;;;21.26;66.82;100382.66;5053740;28;20045;-73
2022/08/17 00:20:04;;;;;;;16.10;8.40;;;;;;;20.73;67.06;100313.59;5054195;28;20154;-73
2022/08/17 00:22:31;;;;;;;10.52;8.63;;;;;;;21.23;67.09;100379.66;5054231;28;20112;-73
2022/08/17 00:25:16;;;;;;;16.73;10.85;;;;;;;21.41;66.96;100388.81;5054006;28;20395;-73
2022/08/17 00:27:43;;;;;;;14.55;9.35;;;;;;;21.31;67.04;100392.91;5053041;28;20088;-72
2022/08/17 00:30:11;;;;;;;17.40;10.02;;;;;;;21.37;66.89;100385.00;5043952;28;20049;-72
2022/08/17 00:32:44;;;;;;;15.18;10.05;;;;;;;21.34;66.93;100378.03;5033141;28;20049;-72
2022/08/17 00:35:31;;;;;;;16.25;9.80;;;;;;;21.31;67.27;100375.88;5014617;28;20418;-73
2022/08/17 00:37:58;;;;;;;18.63;10.65;;;;;;;21.38;67.17;100375.31;5024034;28;20494;-73
2022/08/17 00:40:25;;;;;;;18.50;10.60;;;;;;;21.16;67.23;100342.53;5034527;28;20042;-72
2022/08/17 00:43:20;;;;;;;16.20;8.88;;;;;;;21.10;67.07;100335.47;5033931;28;20056;-73
2022/08/17 00:45:48;;;;;;;11.02;9.93;;;;;;;21.09;66.99;100316.75;5034271;28;20076;-73
2022/08/17 00:48:15;;;;;;;18.63;10.32;;;;;;;21.29;66.85;100369.72;5033900;28;20498;-73
2022/08/17 00:50:58;;;;;;;18.67;10.43;;;;;;;21.34;66.87;100375.19;5033721;28;20041;-73
2022/08/17 00:53:29;;;;;;;15.93;10.38;;;;;;;21.37;67.20;100365.97;5034061;28;20049;-73
2022/08/17 00:56:00;;;;;;;17.83;10.98;;;;;;;21.42;66.50;100368.53;5033877;28;20490;-73
2022/08/17 00:58:28;;;;;;;18.00;9.30;;;;;;;21.27;66.87;100338.03;5033043;28;20050;-73
2022/08/17 01:01:04;;;;;;;19.77;9.73;;;;;;;21.00;66.87;100297.84;5033735;28;20045;-73
2022/08/17 01:03:33;;;;;;;17.38;10.02;;;;;;;21.21;67.10;100360.16;5033504;28;20518;-73
2022/08/17 01:06:03;;;;;;;17.15;9.48;;;;;;;21.01;67.36;100310.84;5033845;28;20053;-74
2022/08/17 01:08:31;;;;;;;24.15;10.48;;;;;;;21.22;67.39;100352.47;5033454;28;20139;-72
2022/08/17 01:11:00;;;;;;;20.25;10.43;;;;;;;20.89;66.66;100284.47;5033699;28;20072;-72
2022/08/17 01:13:30;;;;;;;;;;;;;;;21.15;67.77;100355.91;5034276;28;20049;-71
2022/08/17 01:16:19;;;;;;;13.45;10.52;;;;;;;21.01;67.53;100344.91;5034015;28;19921;-73
2022/08/17 01:18:50;;;;;;;17.15;11.13;;;;;;;20.98;67.47;100354.13;5033299;28;20073;-71
2022/08/17 01:21:42;;;;;;;20.98;10.18;;;;;;;20.94;67.58;100353.19;5048588;28;20100;-74
2022/08/17 01:24:09;;;;;;;18.25;9.18;;;;;;;20.91;68.07;100361.59;5033152;28;20045;-72
2022/08/17 01:26:38;;;;;;;19.00;10.27;;;;;;;20.67;67.41;100295.16;5032745;28;20580;-74
2022/08/17 01:29:05;;;;;;;18.08;10.13;;;;;;;21.10;67.54;100355.34;5033068;28;20045;-74
2022/08/17 01:31:41;;;;;;;21.38;10.88;;;;;;;21.14;67.48;100359.94;5033443;28;20073;-74
2022/08/17 01:34:10;;;;;;;18.77;10.60;;;;;;;21.19;67.24;100356.00;5033314;28;20050;-73
2022/08/17 01:36:40;;;;;;;16.13;11.05;;;;;;;20.87;67.75;100316.06;5033041;28;20099;-73
2022/08/17 01:39:15;;;;;;;;;;;;;;;20.91;68.37;100356.75;5032825;28;20088;-73
2022/08/17 01:41:45;;;;;;;17.20;10.13;;;;;;;20.77;67.88;100297.50;5032843;28;20412;-73
2022/08/17 01:44:15;;;;;;;19.73;10.73;;;;;;;21.12;67.61;100342.41;5032871;28;20498;-73
2022/08/17 01:46:42;;;;;;;17.58;11.52;;;;;;;20.93;67.77;100331.69;5032963;28;20088;-74
2022/08/17 01:49:11;;;;;;;20.63;11.18;;;;;;;20.96;67.75;100338.66;5033321;28;20071;-73
2022/08/17 01:51:38;;;;;;;20.52;11.07;;;;;;;20.84;67.49;100333.81;5031503;28;20065;-73
2022/08/17 01:54:10;;;;;;;16.05;10.30;;;;;;;20.80;67.85;100338.53;5039924;28;20113;-73
2022/08/17 01:56:40;;;;;;;17.13;10.75;;;;;;;20.75;68.07;100338.75;5031363;28;20081;-72
2022/08/17 01:59:07;;;;;;;17.63;10.82;;;;;;;20.39;67.83;100282.81;5032891;28;20148;-72
2022/08/17 02:01:35;;;;;;;12.73;10.07;;;;;;;20.51;67.73;100297.88;5031383;28;20467;-73
2022/08/17 02:04:04;;;;;;;14.55;10.57;;;;;;;20.29;68.10;100267.09;5032785;28;20452;-73
2022/08/17 02:06:33;;;;;;;19.98;9.82;;;;;;;20.62;68.45;100318.09;5033328;28;20108;-73
2022/08/17 02:09:24;;;;;;;23.33;14.13;;;;;;;20.57;68.20;100315.47;5032619;28;20445;-73
2022/08/17 02:11:58;;;;;;;15.98;10.52;;;;;;;20.58;68.54;100300.09;5032435;28;20045;-72
2022/08/17 02:14:25;;;;;;;16.50;9.60;;;;;;;20.75;68.31;100316.06;5032817;28;20103;-72
2022/08/17 02:16:53;;;;;;;19.50;10.07;;;;;;;20.78;68.12;100323.88;5032582;28;20049;-72
2022/08/17 02:19:20;;;;;;;21.55;10.70;;;;;;;20.39;67.97;100272.31;5032406;28;20096;-72
2022/08/17 02:21:50;;;;;;;17.13;10.30;;;;;;;20.66;68.42;100321.03;5031348;28;20049;-73
2022/08/17 02:24:27;;;;;;;25.33;10.48;;;;;;;20.67;68.26;100320.69;5012681;28;20057;-72
2022/08/17 02:27:13;;;;;;;19.40;10.65;;;;;;;20.57;68.26;100310.63;5012823;28;20061;-73
2022/08/17 02:29:40;;;;;;;20.30;10.55;;;;;;;20.55;68.04;100317.84;5032058;28;20085;-72
2022/08/17 02:32:16;;;;;;;20.25;9.93;;;;;;;20.50;68.25;100315.22;5031878;28;20049;-73
2022/08/17 02:34:54;;;;;;;16.83;10.88;;;;;;;20.28;68.17;100290.97;5032438;28;20056;-72
2022/08/17 02:37:21;;;;;;;18.00;10.02;;;;;;;20.21;68.37;100294.38;5032632;28;20049;-72
2022/08/17 02:39:47;;;;;;;14.80;10.80;;;;;;;20.22;68.50;100303.72;5033075;28;20084;-72
2022/08/17 02:42:14;;;;;;;13.68;10.20;;;;;;;20.17;68.49;100310.44;5032462;28;20049;-72
2022/08/17 02:44:42;;;;;;;16.80;10.90;;;;;;;20.16;68.51;100314.44;5032564;28;20084;-72
2022/08/17 02:47:09;;;;;;;19.50;10.95;;;;;;;19.98;68.45;100296.81;5032462;28;20513;-72
2022/08/17 02:49:37;;;;;;;24.63;10.85;;;;;;;20.10;68.32;100322.38;5032359;28;20049;-73
2022/08/17 02:52:06;;;;;;;15.93;11.18;;;;;;;20.03;68.25;100322.13;5034193;28;20072;-73
2022/08/17 02:54:34;;;;;;;22.83;10.60;;;;;;;19.92;68.75;100305.88;5051565;28;20061;-72
2022/08/17 02:57:08;;;;;;;19.02;11.43;;;;;;;19.87;68.67;100309.78;5046891;28;20045;-72
2022/08/17 02:59:37;;;;;;;24.35;10.73;;;;;;;19.92;68.48;100318.03;5055938;28;20049;-73
2022/08/17 03:02:05;;;;;;;17.20;10.88;;;;;;;19.63;68.49;100288.69;5044353;28;20136;-73
2022/08/17 03:04:33;;;;;;;25.73;13.38;;;;;;;19.54;68.91;100281.41;5035731;28;20107;-73
2022/08/17 03:07:02;;;;;;;24.48;11.45;;;;;;;19.75;69.00;100316.22;5036152;28;20390;-73
2022/08/17 03:09:30;;;;;;;21.23;11.80;;;;;;;19.54;68.73;100276.56;5035747;28;20099;-73
2022/08/17 03:12:09;;;;;;;15.85;10.70;;;;;;;19.82;68.73;100326.97;5034480;28;20077;-73
2022/08/17 03:14:41;;;;;;;27.27;11.35;;;;;;;19.93;69.33;100345.22;5036136;28;20049;-73
2022/08/17 03:17:09;;;;;;;25.95;9.88;;;;;;;19.48;69.44;100272.28;5035811;28;20045;-73
2022/08/17 03:19:43;;;;;;;18.45;11.25;;;;;;;19.82;69.48;100322.13;5050053;28;20533;-73
2022/08/17 03:22:10;;;;;;;18.20;11.13;;;;;;;19.96;69.33;100332.34;5035568;28;20046;-73
2022/08/17 03:24:56;;;;;;;18.70;10.10;;;;;;;19.76;69.73;100302.88;5035317;28;20056;-74
2022/08/17 03:27:23;;;;;;;21.15;11.05;;;;;;;20.03;69.35;100332.59;5035557;28;20057;-73
2022/08/17 03:29:50;;;;;;;25.85;12.40;;;;;;;19.84;69.06;100301.97;5036600;28;20081;-72
2022/08/17 03:32:19;;;;;;;19.67;11.13;;;;;;;20.10;69.04;100342.22;5020612;28;20076;-72
2022/08/17 03:34:46;;;;;;;21.17;11.50;;;;;;;19.82;69.14;100292.97;5022343;28;20115;-72
2022/08/17 03:37:13;;;;;;;21.10;10.30;;;;;;;20.07;68.70;100340.06;5016000;28;20751;-73
2022/08/17 03:39:41;;;;;;;24.77;10.60;;;;;;;19.52;68.67;100270.44;5016100;28;20057;-73
2022/08/17 03:42:15;;;;;;;21.48;9.68;;;;;;;19.96;68.83;100350.16;5015428;28;20046;-72
2022/08/17 03:44:58;;;;;;;16.00;11.07;;;;;;;19.76;69.00;100336.88;5015633;28;20426;-73
2022/08/17 03:58:26;;;;;;;16.70;10.27;;;;;;;19.41;69.21;100292.66;5035129;28;20049;-71
2022/08/17 04:00:54;;;;;;;22.13;10.60;;;;;;;19.45;69.53;100306.94;5034758;28;20115;-73
2022/08/17 04:03:21;;;;;;;19.25;10.70;;;;;;;19.74;69.41;100347.75;5034505;28;20473;-72
2022/08/17 04:05:48;;;;;;;29.02;10.93;;;;;;;19.54;69.26;100319.03;5035515;28;20099;-72
2022/08/17 04:08:15;;;;;;;16.88;9.70;;;;;;;19.45;69.30;100306.94;5034694;28;20081;-72
2022/08/17 04:10:41;;;;;;;22.27;11.45;;;;;;;19.60;68.91;100340.31;5034594;28;20564;-72
2022/08/17 04:13:11;;;;;;;22.52;11.50;;;;;;;19.64;69.00;100351.81;5034453;28;20132;-71
2022/08/17 04:15:38;;;;;;;27.60;10.60;;;;;;;19.55;68.98;100340.53;5034464;28;20049;-71
2022/08/17 04:18:06;;;;;;;28.63;10.98;;;;;;;19.57;69.18;100348.69;5034907;28;20081;-72
2022/08/17 04:20:36;;;;;;;19.48;11.05;;;;;;;19.51;69.10;100336.72;5034687;28;20057;-73
2022/08/17 04:23:10;;;;;;;28.00;10.68;;;;;;;19.52;68.89;100338.41;5034945;28;20080;-73
2022/08/17 04:25:47;;;;;;;23.25;11.07;;;;;;;19.17;69.22;100299.03;5034225;28;20057;-73
2022/08/17 04:28:15;;;;;;;20.27;10.73;;;;;;;18.90;68.93;100251.44;5034189;28;20085;-73
2022/08/17 04:30:43;;;;;;;18.48;10.55;;;;;;;19.11;69.19;100286.28;5034162;28;20046;-73
2022/08/17 04:33:16;;;;;;;21.30;12.10;;;;;;;19.16;69.32;100291.72;5034026;28;20059;-73
2022/08/17 04:35:49;;;;;;;14.68;11.18;;;;;;;19.41;69.35;100340.81;5034111;28;20104;-73
2022/08/17 04:38:20;;;;;;;22.58;11.07;;;;;;;18.62;69.51;100223.66;5034608;28;20049;-73
2022/08/17 04:43:35;;;;;;;27.75;11.55;;;;;;;19.08;69.43;100292.63;5034041;28;20095;-73
2022/08/17 04:46:08;;;;;;;26.50;11.73;;;;;;;19.35;69.56;100341.34;5034032;28;20081;-73
2022/08/17 04:48:41;;;;;;;23.50;11.45;;;;;;;19.22;69.61;100325.50;5034284;28;20084;-73
2022/08/17 04:51:13;;;;;;;25.95;11.25;;;;;;;19.28;69.64;100333.44;5034066;28;20099;-73
2022/08/17 04:53:47;;;;;;;26.15;11.20;;;;;;;19.31;69.82;100329.06;5033884;28;20049;-73
2022/08/17 04:56:21;;;;;;;17.33;11.25;;;;;;;19.37;69.99;100333.34;5033859;28;20049;-72
2022/08/17 04:58:49;;;;;;;18.88;10.40;;;;;;;19.28;69.90;100307.09;5034072;28;20119;-73
2022/08/17 05:01:18;;;;;;;18.83;10.90;;;;;;;19.28;69.83;100307.09;5033936;28;20069;-73
2022/08/17 05:03:55;;;;;;;14.75;10.55;;;;;;;19.30;69.96;100311.25;5033803;28;20056;-72
2022/08/17 05:06:22;;;;;;;15.40;9.93;;;;;;;19.19;69.93;100301.53;5033659;28;20057;-71
2022/08/17 05:08:49;;;;;;;28.48;12.07;;;;;;;19.39;69.92;100326.19;5033473;28;20049;-72
2022/08/17 05:11:16;;;;;;;18.52;10.93;;;;;;;19.26;69.70;100307.47;5033432;28;20085;-73
2022/08/17 05:13:43;;;;;;;16.75;10.48;;;;;;;19.28;69.76;100324.94;5048553;28;20086;-73
2022/08/17 05:16:10;;;;;;;18.38;10.90;;;;;;;19.29;69.81;100328.59;5053497;28;20122;-72
2022/08/17 05:18:37;;;;;;;18.67;10.27;;;;;;;19.30;69.89;100333.06;5053163;28;20103;-71
2022/08/17 05:21:05;;;;;;;26.95;12.32;;;;;;;19.35;69.97;100335.69;5053501;28;20072;-72
2022/08/17 05:23:33;;;;;;;18.25;11.45;;;;;;;18.91;69.81;100275.75;5053152;28;20136;-72
2022/08/17 05:26:13;;;;;;;16.52;11.45;;;;;;;19.32;70.01;100347.72;5053095;28;20053;-71
2022/08/17 05:28:57;;;;;;;23.58;11.48;;;;;;;19.29;69.83;100339.91;5043724;28;20077;-72
2022/08/17 05:31:28;;;;;;;14.80;10.98;;;;;;;19.22;70.19;100339.66;5052950;28;20045;-72
2022/08/17 05:33:56;;;;;;;24.48;11.57;;;;;;;19.07;70.35;100307.09;5053226;28;20551;-72
2022/08/17 05:36:23;;;;;;;31.00;13.18;;;;;;;19.27;70.34;100337.41;5053079;28;20053;-71
2022/08/17 05:39:10;;;;;;;17.58;11.23;;;;;;;19.02;70.08;100304.47;5052934;28;20097;-71
2022/08/17 05:41:45;;;;;;;25.98;12.85;;;;;;;19.17;70.02;100324.50;5053523;28;20044;-73
2022/08/17 05:44:11;;;;;;;24.92;12.40;;;;;;;19.21;70.14;100340.78;5051769;28;20460;-73
2022/08/17 05:46:42;;;;;;;24.23;11.88;;;;;;;19.23;70.46;100344.13;5051975;28;20049;-73
2022/08/17 05:49:22;;;;;;;19.95;12.30;;;;;;;19.10;70.30;100323.41;5052810;28;20110;-73
2022/08/17 05:52:07;;;;;;;;;;;;;;;19.10;71.04;100352.53;5053475;28;20118;-73
2022/08/17 05:54:46;;;;;;;20.95;12.25;;;;;;;19.16;70.37;100351.16;5053015;28;19970;-73
2022/08/17 05:57:42;;;;;;;20.48;12.20;;;;;;;19.14;70.32;100363.97;5013019;28;20089;-72
2022/08/17 06:00:35;;;;;;;19.42;12.18;;;;;;;19.21;70.59;100369.94;5013186;28;20120;-73
2022/08/17 06:03:17;;;;;;;17.05;11.63;;;;;;;19.17;70.65;100352.81;5016909;28;20101;-73
2022/08/17 06:06:12;;;;;;;18.35;12.27;;;;;;;19.26;70.68;100374.59;5032717;28;20104;-72
2022/08/17 06:08:57;;;;;;;27.17;12.95;;;;;;;19.22;70.90;100382.94;5032515;28;20096;-73
2022/08/17 06:11:34;;;;;;;18.40;11.35;;;;;;;19.26;70.75;100383.06;5032850;28;20054;-72
2022/08/17 06:14:15;;;;;;;24.13;13.23;;;;;;;19.09;70.40;100361.38;5032897;28;20095;-72
2022/08/17 06:16:46;;;;;;;15.75;13.77;;;;;;;19.16;70.27;100373.81;5032817;28;20053;-73
2022/08/17 06:19:26;;;;;;;27.38;13.85;;;;;;;19.15;70.44;100372.16;5032535;28;20049;-73
2022/08/17 06:21:53;;;;;;;17.95;12.93;;;;;;;19.20;70.68;100373.94;5033103;28;20049;-73
2022/08/17 06:24:56;;;;;;;21.35;13.75;;;;;;;19.17;70.65;100377.47;5032357;28;20510;-73
2022/08/17 06:27:50;;;;;;;22.65;13.00;;;;;;;19.10;70.88;100378.00;5035301;28;20422;-73
2022/08/17 06:30:28;;;;;;;23.38;12.90;;;;;;;19.13;70.53;100365.16;5051940;28;20136;-73
2022/08/17 06:33:22;;;;;;;16.45;14.00;;;;;;;19.23;70.69;100395.09;5048932;28;20050;-74
2022/08/17 06:36:14;;;;;;;22.55;13.43;;;;;;;19.27;70.33;100387.56;5035205;28;20049;-71
2022/08/17 06:38:58;;;;;;;29.38;14.55;;;;;;;18.78;70.26;100327.78;5035450;28;20049;-73
2022/08/17 06:41:55;;;;;;;22.33;13.13;;;;;;;19.21;70.78;100391.75;5036385;28;20089;-73
2022/08/17 06:44:35;;;;;;;23.77;13.10;;;;;;;19.18;70.37;100382.78;5036453;28;20050;-73
2022/08/17 06:47:19;;;;;;;19.58;11.73;;;;;;;19.25;70.47;100407.72;5036562;28;20482;-72
2022/08/17 06:50:07;;;;;;;15.70;11.55;;;;;;;19.25;70.36;100398.38;5050512;28;20565;-72
2022/08/17 06:52:44;;;;;;;23.95;15.02;;;;;;;19.14;70.39;100381.81;5036381;28;20045;-73
2022/08/17 06:55:20;;;;;;;17.17;13.00;;;;;;;19.19;70.54;100389.28;5036334;28;20125;-72
2022/08/17 06:57:53;;;;;;;16.55;12.32;;;;;;;19.25;70.51;100392.72;5035907;28;20100;-73
2022/08/17 07:00:25;;;;;;;17.85;12.75;;;;;;;19.02;70.59;100342.09;5035995;28;20088;-73
2022/08/17 07:03:11;;;;;;;16.63;13.93;;;;;;;19.55;70.33;100419.81;5035894;28;20045;-73
2022/08/17 07:06:07;;;;;;;21.95;12.43;;;;;;;19.56;70.65;100409.34;5036219;28;20421;-72
2022/08/17 07:08:54;;;;;;;28.98;16.85;;;;;;;19.42;70.36;100382.13;5036194;28;20076;-73
2022/08/17 07:11:36;;;;;;;22.73;16.90;;;;;;;19.83;70.28;100425.00;5025953;28;20049;-72
2022/08/17 07:14:26;;;;;;;23.70;15.35;;;;;;;19.99;70.29;100423.16;5035712;28;20501;-72
2022/08/17 07:16:55;;;;;;;14.32;13.07;;;;;;;19.82;69.94;100373.16;5035628;28;20498;-72
2022/08/17 07:19:26;;;;;;;14.50;11.25;;;;;;;19.95;69.39;100378.88;5036003;28;20081;-72
2022/08/17 07:21:56;;;;;;;14.10;12.35;;;;;;;20.33;69.09;100426.84;5035501;28;20085;-72
2022/08/17 07:24:40;;;;;;;13.15;11.80;;;;;;;20.40;69.30;100427.09;5036780;28;20494;-74
2022/08/17 07:27:17;;;;;;;16.30;12.95;;;;;;;20.47;69.10;100440.72;5051749;28;20107;-74
2022/08/17 07:30:08;;;;;;;15.65;13.57;;;;;;;20.51;69.06;100438.88;5036161;28;20054;-73
2022/08/17 07:32:57;;;;;;;13.70;12.43;;;;;;;20.58;68.96;100428.63;5016356;28;20391;-74
2022/08/17 07:35:39;;;;;;;22.20;11.32;;;;;;;20.55;68.86;100408.63;5016357;28;20117;-72
2022/08/17 07:38:11;;;;;;;12.38;11.13;;;;;;;20.82;68.23;100438.38;5015675;28;20108;-71
2022/08/17 07:40:56;;;;;;;22.55;13.10;;;;;;;20.89;68.03;100438.59;5015727;28;20054;-72
2022/08/17 07:43:26;;;;;;;19.98;11.25;;;;;;;20.96;67.98;100447.34;5016148;28;20108;-72
2022/08/17 07:48:54;;;;;;;20.90;11.80;;;;;;;20.89;67.65;100404.53;5035395;28;20552;-72
2022/08/17 07:51:24;;;;;;;12.35;11.30;;;;;;;21.42;67.77;100442.41;5036041;28;20123;-73
2022/08/17 07:53:53;;;;;;;15.85;12.18;;;;;;;21.61;67.20;100423.94;5035649;28;20049;-73
2022/08/17 07:56:47;;;;;;;20.10;11.30;;;;;;;22.21;66.72;100448.50;5035440;28;20088;-72
2022/08/17 07:59:17;;;;;;;12.43;11.15;;;;;;;22.71;66.21;100443.41;5035747;28;20050;-73
2022/08/17 08:01:55;;;;;;;12.73;11.73;;;;;;;22.95;65.65;100442.44;5035375;28;20053;-72
2022/08/17 08:04:26;;;;;;;14.63;12.55;;;;;;;22.92;65.12;100429.75;5015546;28;20049;-73
2022/08/17 08:07:38;;;;;;;13.73;12.38;;;;;;;22.86;65.68;100434.03;5015353;28;20056;-73
2022/08/17 08:10:23;;;;;;;13.43;12.10;;;;;;;22.74;64.91;100447.53;5015607;28;20491;-73
2022/08/17 08:13:00;;;;;;;13.18;10.88;;;;;;;22.47;65.20;100419.56;5015273;28;20507;-73
2022/08/17 08:15:38;;;;;;;12.95;11.65;;;;;;;22.65;64.42;100456.22;5014067;28;20582;-72
2022/08/17 08:18:47;;;;;;;12.20;11.20;;;;;;;22.55;65.04;100462.47;5014820;28;20069;-72
2022/08/17 08:21:35;;;;;;;13.18;11.65;;;;;;;22.59;64.34;100457.69;4987381;28;20073;-72
2022/08/17 08:24:17;;;;;;;12.48;11.55;;;;;;;22.51;64.53;100450.16;5015114;28;20470;-72
2022/08/17 08:27:05;;;;;;;11.85;10.68;;;;;;;22.55;64.63;100446.19;5014547;28;20093;-73
2022/08/17 08:29:51;;;;;;;13.83;12.10;;;;;;;22.63;64.29;100438.69;5027072;28;20050;-73
2022/08/17 08:32:36;;;;;;;14.20;11.35;;;;;;;22.83;63.77;100451.00;5034699;28;20503;-73
2022/08/17 08:35:12;;;;;;;12.60;10.90;;;;;;;22.84;63.95;100444.16;5034919;28;20057;-74
2022/08/17 08:37:47;;;;;;;13.23;11.45;;;;;;;22.85;63.60;100457.19;5049844;28;20103;-73
2022/08/17 08:40:35;;;;;;;11.65;10.43;;;;;;;22.76;63.28;100451.66;5053150;28;20107;-73
2022/08/17 08:43:22;;;;;;;14.38;13.18;;;;;;;22.91;63.22;100462.25;5054101;28;20563;-74
2022/08/17 08:45:51;;;;;;;12.10;11.25;;;;;;;23.09;63.03;100461.91;5033283;28;20045;-73
2022/08/17 08:48:41;;;;;;;13.65;12.25;;;;;;;23.08;62.76;100457.41;5053597;28;20523;-74
2022/08/17 08:51:50;;;;;;;13.93;12.77;;;;;;;23.08;62.51;100468.81;5054530;28;20120;-74
2022/08/17 08:54:45;;;;;;;15.38;11.10;;;;;;;23.30;62.19;100462.44;5048455;28;20117;-74
2022/08/17 08:57:17;;;;;;;13.82;11.30;;;;;;;23.64;61.67;100445.72;5034198;28;20115;-73
2022/08/17 08:59:55;;;;;;;12.77;11.60;;;;;;;23.89;60.07;100464.25;5033756;28;20052;-74
2022/08/17 09:02:40;;;;;;;14.30;11.75;;;;;;;23.82;59.44;100424.19;5033720;28;20053;-74
2022/08/17 09:05:28;;;;;;;12.23;11.10;;;;;;;24.23;59.29;100453.16;5049219;28;20489;-73
2022/08/17 09:08:14;;;;;;;10.50;9.50;;;;;;;24.89;58.47;100458.94;5034242;28;20115;-74
2022/08/17 09:11:12;;;;;;;10.70;9.65;;;;;;;25.16;57.10;100446.44;5030735;28;20072;-74
2022/08/17 09:13:52;;;;;;;14.45;10.07;;;;;;;25.13;56.43;100458.63;5033837;28;20084;-73
2022/08/17 09:16:29;;;;;;;10.75;9.98;;;;;;;24.82;56.77;100443.34;5033540;28;20045;-74
2022/08/17 09:19:07;;;;;;;10.02;9.13;;;;;;;24.81;56.17;100463.72;5033673;28;20079;-73
2022/08/17 09:21:53;;;;;;;11.30;10.15;;;;;;;24.34;56.17;100420.00;5034000;28;20084;-73
2022/08/17 09:24:39;;;;;;;11.82;10.68;;;;;;;24.53;56.27;100456.25;5034240;28;20045;-73
2022/08/17 09:27:14;;;;;;;10.70;9.80;;;;;;;24.87;55.93;100467.09;5033763;28;20509;-74
2022/08/17 09:29:47;;;;;;;10.25;9.30;;;;;;;25.02;55.11;100458.38;5033583;28;20514;-73
2022/08/17 09:32:27;;;;;;;16.85;11.68;;;;;;;24.75;54.92;100437.53;5033476;28;20051;-73
2022/08/17 09:35:00;;;;;;;11.63;10.52;;;;;;;24.71;54.78;100436.59;5033910;28;20076;-73
2022/08/17 09:37:49;;;;;;;11.60;10.15;;;;;;;24.72;54.96;100477.44;5033755;28;20053;-72
2022/08/17 09:40:23;;;;;;;11.55;10.50;;;;;;;24.56;55.36;100463.25;5033702;28;20088;-73
2022/08/17 09:43:29;;;;;;;12.30;10.85;;;;;;;24.48;55.54;100461.44;5033427;28;20498;-73
2022/08/17 09:46:10;;;;;;;11.60;10.23;;;;;;;24.28;55.11;100438.63;5033947;28;20057;-73
2022/08/17 09:48:54;;;;;;;11.55;10.45;;;;;;;24.48;54.87;100458.59;5033388;28;20053;-73
2022/08/17 09:51:29;;;;;;;11.68;10.50;;;;;;;24.49;55.01;100443.13;5033611;28;20049;-73
2022/08/17 09:53:57;;;;;;;14.18;12.88;;;;;;;24.66;54.65;100462.63;5033350;28;20053;-72
2022/08/17 09:56:51;;;;;;;11.70;10.55;;;;;;;24.63;54.76;100469.09;5033586;28;20150;-73
2022/08/17 09:59:52;;;;;;;11.48;10.55;;;;;;;24.64;54.24;100461.34;5033389;28;20132;-73
2022/08/17 10:02:40;;;;;;;11.18;10.13;;;;;;;24.53;54.30;100464.00;5034140;28;20045;-73
2022/08/17 10:05:16;;;;;;;14.73;13.43;;;;;;;24.17;54.56;100408.19;5033501;28;20506;-73
2022/08/17 10:07:58;;;;;;;11.05;10.10;;;;;;;24.54;54.56;100457.06;5033232;28;20050;-73
2022/08/17 10:10:42;;;;;;;12.50;11.15;;;;;;;24.62;54.38;100458.06;5033677;28;20121;-73
2022/08/17 10:13:31;;;;;;;11.20;10.20;;;;;;;24.81;53.84;100444.53;5033333;28;20042;-73
2022/08/17 10:16:44;;;;;;;11.25;9.77;;;;;;;25.91;52.96;100464.75;5033561;28;20045;-73
2022/08/17 10:19:38;;;;;;;11.85;10.40;;;;;;;26.36;52.21;100456.34;5010691;28;20077;-74
2022/08/17 10:28:24;;;;;;;13.57;12.52;;;;;;;26.33;51.51;100437.09;5033383;28;20103;-74
2022/08/17 10:30:59;;;;;;;13.82;12.02;;;;;;;26.48;50.63;100443.84;5033852;28;20075;-73
2022/08/17 10:34:17;;;;;;;12.48;11.38;;;;;;;26.74;50.70;100448.63;5033131;28;20050;-74
2022/08/17 10:36:51;;;;;;;14.67;11.97;;;;;;;27.29;49.87;100454.50;5034211;28;20046;-74
2022/08/17 10:39:35;;;;;;;12.77;11.60;;;;;;;27.68;48.75;100393.69;5033083;28;20301;-74
2022/08/17 10:42:31;;;;;;;13.35;12.02;;;;;;;28.45;47.83;100447.00;5033380;28;20049;-74
2022/08/17 10:45:31;;;;;;;12.05;10.80;;;;;;;28.71;47.71;100450.75;5032946;28;20494;-74
2022/08/17 10:48:02;;;;;;;11.50;10.35;;;;;;;28.95;47.28;100449.97;5025748;28;20045;-73
2022/08/17 10:50:50;;;;;;;14.23;12.98;;;;;;;29.00;46.86;100423.75;5048051;28;20065;-74
2022/08/17 10:53:32;;;;;;;13.68;10.75;;;;;;;29.39;45.75;100451.66;5033434;28;20080;-74
2022/08/17 10:56:16;;;;;;;11.77;10.82;;;;;;;29.23;45.43;100448.38;5033130;28;20135;-73
2022/08/17 10:58:53;;;;;;;11.32;10.18;;;;;;;29.49;44.84;100447.16;5032707;28;20057;-73
2022/08/17 11:01:32;;;;;;;14.40;10.10;;;;;;;29.40;45.27;100447.59;5033026;28;20096;-74
2022/08/17 11:04:08;;;;;;;13.30;10.73;;;;;;;29.61;45.07;100464.03;5032794;28;20045;-74
2022/08/17 11:06:37;;;;;;;11.77;9.68;;;;;;;29.73;43.83;100465.63;5033093;28;20049;-74
2022/08/17 11:09:23;;;;;;;11.75;10.73;;;;;;;29.51;44.55;100448.38;5033283;28;20057;-75
2022/08/17 11:11:50;;;;;;;12.25;10.55;;;;;;;29.66;43.90;100462.78;5033350;28;20041;-74
2022/08/17 11:14:35;;;;;;;12.10;10.70;;;;;;;29.57;44.05;100447.94;5036249;28;20555;-74
2022/08/17 11:17:23;;;;;;;12.63;11.43;;;;;;;29.25;44.44;100402.78;5036911;28;20468;-74
2022/08/17 11:20:36;;;;;;;14.45;12.70;;;;;;;29.30;44.62;100451.28;5036485;28;20119;-74
2022/08/17 11:23:34;;;;;;;12.77;10.75;;;;;;;28.98;44.64;100449.16;5036905;28;20049;-75
2022/08/17 11:26:07;;;;;;;10.68;9.77;;;;;;;28.72;43.64;100436.00;5053531;28;20107;-74
2022/08/17 11:28:47;;;;;;;11.18;9.88;;;;;;;28.40;44.02;100417.84;5056100;28;20050;-75
2022/08/17 11:31:38;;;;;;;12.02;9.95;;;;;;;29.23;43.85;100446.34;5036271;28;20080;-74
2022/08/17 11:34:17;;;;;;;14.85;10.40;;;;;;;29.54;43.22;100452.50;5035951;28;20490;-75
2022/08/17 11:37:08;;;;;;;11.18;10.20;;;;;;;29.67;43.26;100450.84;5036012;28;20103;-74
2022/08/17 11:40:23;;;;;;;11.20;10.10;;;;;;;29.96;42.60;100445.03;5035778;28;20222;-73
2022/08/17 11:43:12;;;;;;;11.75;10.82;;;;;;;30.51;41.47;100432.06;5013363;28;20457;-74
2022/08/17 11:46:20;;;;;;;16.23;12.50;;;;;;;30.65;41.87;100446.38;5015753;28;20054;-74
2022/08/17 11:52:31;;;;;;;16.42;14.98;;;;;;;30.91;40.46;100419.88;5019049;28;20107;-73
2022/08/17 11:54:58;;;;;;;15.27;13.93;;;;;;;31.45;39.73;100435.94;5035266;28;20080;-73
2022/08/17 11:58:13;;;;;;;13.63;12.35;;;;;;;31.72;38.64;100410.09;5035625;28;20067;-74
2022/08/17 12:00:48;;;;;;;13.57;12.55;;;;;;;31.95;38.09;100435.44;5021161;28;20045;-74
2022/08/17 12:03:42;;;;;;;11.27;10.13;;;;;;;32.03;37.25;100422.56;5055803;28;20045;-74
2022/08/17 12:06:26;;;;;;;11.27;10.30;;;;;;;32.45;36.40;100431.97;5055551;28;20048;-74
2022/08/17 12:09:11;;;;;;;12.30;11.13;;;;;;;33.35;35.67;100429.34;5055550;28;20569;-74
2022/08/17 12:12:01;;;;;;;12.25;11.10;;;;;;;34.12;34.00;100430.38;5055006;28;20064;-73
2022/08/17 12:14:52;;;;;;;12.10;10.90;;;;;;;34.90;32.97;100424.94;5054227;28;20045;-73
2022/08/17 12:17:38;;;;;;;12.30;11.10;;;;;;;35.14;31.56;100384.97;5054567;28;20049;-74
2022/08/17 12:20:14;;;;;;;12.95;11.73;;;;;;;35.79;31.28;100427.66;5055099;28;20045;-74
2022/08/17 12:22:57;;;;;;;12.02;10.88;;;;;;;36.05;30.11;100419.91;5035080;28;20053;-73
2022/08/17 12:25:48;;;;;;;12.30;10.70;;;;;;;36.06;29.52;100340.94;5035698;28;20080;-74
2022/08/17 12:28:24;;;;;;;11.77;11.00;;;;;;;36.81;28.64;100419.22;5035157;28;20080;-74